Relatórios de METAR próximas

 

LPPR - Porto, Portugal, PT
Distance from station: N 52km
Actualizado: 13/08/2022 20:00
Few Clouds
Few Clouds
 Vento de WNW
Vento: WNW 7 km/h
Temperatura: 19°C
Ponto de Orvalho: 17°C
Humidade: 88%
Barómetro: 1014 hPa
Nuvens: Few Clouds
Visibilidade: 10 km
Cloud details: Few Clouds 335 m
2022/08/13 19:00 LPPR 131900Z 30004KT 9999 FEW011 19/17 Q1014